METAR Data
IDs: Format: Raw Decoded Include TAF

Data at: 0830 UTC 18 Sep 2021

LICT 180755Z 17010KT CAVOK 30/19 Q1013 RMK BKN SCT130 BKN200 VIS MIN 9999 WIND THR13 18009KT BLU